createdAt,value
2018-05-25T00:00:05.193Z,71.97
2018-05-25T00:02:34.592Z,72.23
2018-05-25T00:05:03.998Z,72.64
2018-05-25T00:07:33.641Z,72.37
2018-05-25T00:10:03.330Z,72.31
2018-05-25T00:12:32.814Z,72.16
2018-05-25T00:15:02.461Z,72.50
2018-05-25T00:17:32.118Z,72.36
2018-05-25T00:20:01.771Z,72.79
2018-05-25T00:22:31.530Z,72.74
2018-05-25T00:25:01.184Z,72.73
2018-05-25T00:27:30.845Z,72.84
2018-05-25T00:30:00.489Z,72.58
2018-05-25T00:32:30.156Z,72.58
2018-05-25T00:34:59.863Z,72.73
2018-05-25T00:37:29.528Z,72.85
2018-05-25T00:39:59.232Z,72.90
2018-05-25T00:42:28.886Z,72.96
2018-05-25T00:44:58.521Z,73.11
2018-05-25T00:47:28.208Z,73.61
2018-05-25T00:49:57.866Z,73.47
2018-05-25T00:52:27.569Z,73.43
2018-05-25T00:55:08.538Z,73.33
2018-05-25T00:57:37.941Z,73.26
2018-05-25T01:00:07.263Z,73.32
2018-05-25T01:02:36.648Z,73.57
2018-05-25T01:05:06.295Z,73.90
2018-05-25T01:07:35.960Z,74.06
2018-05-25T01:10:05.643Z,74.59
2018-05-25T01:12:35.291Z,75.11
2018-05-25T01:15:04.630Z,75.29
2018-05-25T01:17:34.274Z,75.60
2018-05-25T01:20:03.700Z,75.13
2018-05-25T01:22:33.405Z,74.96
2018-05-25T01:25:03.065Z,74.87
2018-05-25T01:27:32.763Z,74.97
2018-05-25T01:30:02.455Z,74.83
2018-05-25T01:32:32.124Z,74.75
2018-05-25T01:35:01.820Z,74.82
2018-05-25T01:37:31.498Z,74.88
2018-05-25T01:40:01.188Z,75.17
2018-05-25T01:42:30.842Z,75.43
2018-05-25T01:45:00.498Z,75.71
2018-05-25T01:47:30.182Z,75.86
2018-05-25T01:49:59.587Z,76.09
2018-05-25T01:52:29.301Z,76.53
2018-05-25T01:54:58.964Z,76.52
2018-05-25T01:57:28.632Z,77.03
2018-05-25T01:59:58.283Z,77.33
2018-05-25T02:02:27.924Z,77.08
2018-05-25T02:04:57.632Z,77.36
2018-05-25T02:07:27.290Z,77.40
2018-05-25T02:09:56.983Z,77.22
2018-05-25T02:12:26.639Z,77.84
2018-05-25T02:14:56.305Z,77.86
2018-05-25T02:17:25.969Z,77.83
2018-05-25T02:19:55.627Z,77.75
2018-05-25T02:22:25.354Z,78.05
2018-05-25T02:24:55.001Z,77.86
2018-05-25T02:27:24.684Z,78.21
2018-05-25T02:29:54.355Z,78.68
2018-05-25T02:32:24.018Z,78.69
2018-05-25T02:34:53.721Z,79.08
2018-05-25T02:37:23.404Z,79.16
2018-05-25T02:39:53.122Z,79.28
2018-05-25T02:42:22.820Z,79.64
2018-05-25T02:44:52.483Z,79.31
2018-05-25T02:47:22.152Z,79.48
2018-05-25T02:49:51.817Z,79.22
2018-05-25T02:52:21.525Z,78.84
2018-05-25T02:54:51.188Z,78.85
2018-05-25T02:57:20.944Z,79.19
2018-05-25T02:59:50.785Z,79.26
2018-05-25T03:02:20.455Z,79.47
2018-05-25T03:04:50.171Z,79.49
2018-05-25T03:07:19.832Z,79.70
2018-05-25T03:09:49.530Z,79.12
2018-05-25T03:12:19.198Z,78.68
2018-05-25T03:14:48.867Z,78.57
2018-05-25T03:17:17.975Z,78.60
2018-05-25T03:19:47.632Z,78.29
2018-05-25T03:22:17.303Z,78.14
2018-05-25T03:24:46.988Z,77.86
2018-05-25T03:27:16.669Z,77.91
2018-05-25T03:29:46.376Z,77.91
2018-05-25T03:32:16.036Z,77.94
2018-05-25T03:34:45.706Z,77.95
2018-05-25T03:37:15.357Z,77.73
2018-05-25T03:39:45.028Z,77.73
2018-05-25T03:42:14.719Z,77.50
2018-05-25T03:44:44.372Z,77.18
2018-05-25T03:47:14.042Z,76.74
2018-05-25T03:49:43.711Z,76.42
2018-05-25T03:52:13.357Z,75.80
2018-05-25T03:54:43.049Z,75.48
2018-05-25T03:57:12.719Z,75.33
2018-05-25T03:59:53.273Z,75.31
2018-05-25T04:02:22.685Z,74.72
2018-05-25T04:04:52.109Z,74.13
2018-05-25T04:07:21.813Z,73.78
2018-05-25T04:09:51.499Z,73.29
2018-05-25T04:12:21.165Z,72.55
2018-05-25T04:14:50.850Z,72.21
2018-05-25T04:17:20.524Z,71.23
2018-05-25T04:19:50.219Z,70.19
2018-05-25T04:22:19.899Z,69.34
2018-05-25T04:24:49.569Z,68.30
2018-05-25T04:27:19.241Z,67.61
2018-05-25T04:32:17.440Z,65.05
2018-05-25T04:34:47.091Z,63.91
2018-05-25T04:37:16.740Z,63.17
2018-05-25T04:39:46.394Z,62.25
2018-05-25T04:42:16.044Z,61.22
2018-05-25T04:44:45.739Z,60.40
2018-05-25T04:47:15.381Z,59.13
2018-05-25T04:49:45.030Z,55.85
2018-05-25T04:52:14.681Z,53.29
2018-05-25T04:54:44.338Z,50.10
2018-05-25T04:57:14.026Z,48.36
2018-05-25T04:59:43.688Z,47.30
2018-05-25T05:02:13.392Z,46.28
2018-05-25T05:04:43.104Z,43.73
2018-05-25T05:07:12.753Z,41.54
2018-05-25T05:09:43.032Z,40.22
2018-05-25T05:12:13.275Z,38.68
2018-05-25T05:14:43.602Z,36.20
2018-05-25T05:17:14.007Z,33.76
2018-05-25T05:19:44.279Z,31.03
2018-05-25T05:22:14.535Z,29.78
2018-05-25T05:24:44.827Z,28.06
2018-05-25T05:27:15.067Z,27.53
2018-05-25T05:29:45.084Z,27.48
2018-05-25T05:32:15.336Z,27.46
2018-05-25T05:34:45.325Z,26.34
2018-05-25T05:37:15.570Z,25.27
2018-05-25T05:39:45.802Z,24.13
2018-05-25T05:42:16.071Z,23.26
2018-05-25T05:44:46.299Z,22.78
2018-05-25T05:47:16.569Z,22.44
2018-05-25T05:49:46.802Z,22.79
2018-05-25T05:52:17.027Z,23.17
2018-05-25T05:54:47.317Z,22.81
2018-05-25T05:57:19.254Z,22.45
2018-05-25T05:59:49.752Z,22.18
2018-05-25T06:02:19.974Z,22.54
2018-05-25T06:04:50.244Z,22.54
2018-05-25T06:07:20.481Z,22.31
2018-05-25T06:09:50.758Z,23.17
2018-05-25T06:12:21.088Z,23.03
2018-05-25T06:14:51.342Z,23.36
2018-05-25T06:17:21.625Z,23.71
2018-05-25T06:19:51.586Z,23.50
2018-05-25T06:22:21.839Z,23.51
2018-05-25T06:24:52.068Z,23.29
2018-05-25T06:27:22.292Z,23.86
2018-05-25T06:29:52.560Z,24.39
2018-05-25T06:32:22.886Z,24.01
2018-05-25T06:34:53.322Z,23.96
2018-05-25T06:37:23.607Z,23.63
2018-05-25T06:39:53.864Z,23.56
2018-05-25T06:42:24.091Z,23.18
2018-05-25T06:44:54.315Z,21.92
2018-05-25T06:47:24.591Z,20.84
2018-05-25T06:49:54.591Z,21.47
2018-05-25T06:52:24.855Z,20.84
2018-05-25T06:54:55.092Z,20.27
2018-05-25T06:57:25.320Z,20.63
2018-05-25T06:59:55.612Z,19.86
2018-05-25T07:02:25.848Z,19.43
2018-05-25T07:04:56.113Z,19.32
2018-05-25T07:07:26.332Z,18.24
2018-05-25T07:09:56.602Z,18.71
2018-05-25T07:12:26.874Z,18.77
2018-05-25T07:14:57.157Z,19.22
2018-05-25T07:17:27.448Z,19.17
2018-05-25T07:19:57.390Z,18.69
2018-05-25T07:22:27.355Z,18.25
2018-05-25T07:24:57.025Z,17.35
2018-05-25T07:27:27.035Z,17.79
2018-05-25T07:29:56.983Z,17.76
2018-05-25T07:32:26.941Z,17.19
2018-05-25T07:34:56.920Z,17.33
2018-05-25T07:37:26.863Z,17.62
2018-05-25T07:39:56.823Z,18.44
2018-05-25T07:42:26.771Z,18.26
2018-05-25T07:44:56.729Z,18.69
2018-05-25T07:47:26.706Z,19.42
2018-05-25T07:49:56.649Z,19.30
2018-05-25T07:52:26.615Z,18.23
2018-05-25T07:54:56.546Z,17.88
2018-05-25T07:57:26.542Z,17.43
2018-05-25T07:59:56.585Z,17.56
2018-05-25T08:02:26.548Z,17.46
2018-05-25T08:04:56.535Z,17.17
2018-05-25T08:07:26.461Z,17.77
2018-05-25T08:09:56.717Z,18.54
2018-05-25T08:12:26.954Z,17.22
2018-05-25T08:14:57.191Z,16.85
2018-05-25T08:17:27.461Z,17.60
2018-05-25T08:19:57.400Z,17.48
2018-05-25T08:22:27.659Z,16.74
2018-05-25T08:24:57.896Z,17.51
2018-05-25T08:27:28.119Z,17.21
2018-05-25T08:29:58.155Z,17.55
2018-05-25T08:32:28.388Z,18.18
2018-05-25T08:34:58.101Z,19.53
2018-05-25T08:37:28.091Z,18.98
2018-05-25T08:39:58.367Z,19.29
2018-05-25T08:42:28.604Z,18.53
2018-05-25T08:44:58.873Z,18.89
2018-05-25T08:47:29.112Z,18.76
2018-05-25T08:49:59.395Z,19.11
2018-05-25T08:52:29.617Z,19.58
2018-05-25T08:54:59.869Z,19.05
2018-05-25T08:57:30.100Z,19.10
2018-05-25T09:00:00.328Z,19.28
2018-05-25T09:02:30.623Z,18.56
2018-05-25T09:05:00.848Z,18.62
2018-05-25T09:07:31.295Z,18.66
2018-05-25T09:10:01.580Z,18.25
2018-05-25T09:12:31.862Z,19.93
2018-05-25T09:15:02.093Z,21.02
2018-05-25T09:17:32.353Z,22.92
2018-05-25T09:20:02.627Z,25.01
2018-05-25T09:22:32.852Z,26.08
2018-05-25T09:25:03.121Z,27.74
2018-05-25T09:27:33.359Z,28.10
2018-05-25T09:30:03.383Z,28.32
2018-05-25T09:32:33.621Z,28.32
2018-05-25T09:35:03.847Z,28.62
2018-05-25T09:37:34.134Z,28.44
2018-05-25T09:40:04.131Z,28.86
2018-05-25T09:42:34.369Z,29.99
2018-05-25T09:45:03.999Z,29.72
2018-05-25T09:47:34.220Z,30.76
2018-05-25T09:50:04.160Z,31.29
2018-05-25T09:52:34.414Z,30.91
2018-05-25T09:55:04.375Z,31.07
2018-05-25T09:57:34.617Z,31.98
2018-05-25T10:00:03.996Z,30.91
2018-05-25T10:02:34.267Z,31.74
2018-05-25T10:05:04.499Z,31.48
2018-05-25T10:07:34.763Z,31.01
2018-05-25T10:10:04.646Z,31.11
2018-05-25T10:12:34.891Z,31.19
2018-05-25T10:15:04.789Z,33.76
2018-05-25T10:17:35.016Z,36.88
2018-05-25T10:20:06.150Z,38.06
2018-05-25T10:22:36.376Z,38.78
2018-05-25T10:25:06.327Z,38.71
2018-05-25T10:27:36.547Z,37.20
2018-05-25T10:30:06.189Z,37.35
2018-05-25T10:32:36.423Z,38.58
2018-05-25T10:35:06.723Z,46.04
2018-05-25T10:37:36.622Z,71.14
2018-05-25T10:40:06.282Z,76.99
2018-05-25T10:42:35.929Z,78.11
2018-05-25T10:45:05.251Z,83.88
2018-05-25T10:47:34.922Z,87.98
2018-05-25T10:50:04.373Z,87.22
2018-05-25T10:52:34.025Z,88.79
2018-05-25T10:55:03.679Z,91.69
2018-05-25T10:57:33.350Z,87.10
2018-05-25T11:00:02.996Z,76.64
2018-05-25T11:02:32.695Z,78.00
2018-05-25T11:05:02.354Z,77.67
2018-05-25T11:07:32.006Z,82.79
2018-05-25T11:10:01.678Z,80.61
2018-05-25T11:12:31.343Z,78.50
2018-05-25T11:15:01.049Z,79.47
2018-05-25T11:17:30.704Z,77.06
2018-05-25T11:20:00.390Z,77.07
2018-05-25T11:22:30.090Z,73.93
2018-05-25T11:24:59.755Z,72.10
2018-05-25T11:27:29.405Z,71.55
2018-05-25T11:29:59.060Z,70.67
2018-05-25T11:32:28.716Z,70.25
2018-05-25T11:34:58.398Z,65.81
2018-05-25T11:37:28.049Z,63.38
2018-05-25T11:39:57.696Z,62.79
2018-05-25T11:42:27.342Z,62.41
2018-05-25T11:44:57.004Z,63.31
2018-05-25T11:47:26.712Z,56.08
2018-05-25T11:49:56.379Z,55.52
2018-05-25T11:52:26.064Z,56.25
2018-05-25T11:54:55.471Z,63.56
2018-05-25T11:57:25.741Z,61.99
2018-05-25T11:59:56.006Z,60.78
2018-05-25T12:02:26.243Z,58.15
2018-05-25T12:04:56.500Z,58.44
2018-05-25T12:07:26.157Z,60.97
2018-05-25T12:09:55.818Z,60.65
2018-05-25T12:12:25.525Z,62.18
2018-05-25T12:14:55.181Z,60.55
2018-05-25T12:17:24.602Z,61.40
2018-05-25T12:19:54.271Z,60.23
2018-05-25T12:22:23.941Z,62.60
2018-05-25T12:24:53.638Z,62.79
2018-05-25T12:27:23.295Z,64.04
2018-05-25T12:29:52.692Z,67.17
2018-05-25T12:32:22.331Z,69.14
2018-05-25T12:34:52.187Z,65.29
2018-05-25T12:37:22.522Z,66.96
2018-05-25T12:39:52.212Z,69.56
2018-05-25T12:42:21.893Z,67.41
2018-05-25T12:45:02.888Z,70.06
2018-05-25T12:47:32.259Z,73.32
2018-05-25T12:50:01.954Z,68.44
2018-05-25T12:52:31.607Z,65.76
2018-05-25T12:55:01.272Z,66.19
2018-05-25T12:57:30.931Z,65.16
2018-05-25T13:00:00.588Z,63.83
2018-05-25T13:02:30.321Z,63.15
2018-05-25T13:05:00.205Z,59.55
2018-05-25T13:07:29.875Z,60.28
2018-05-25T13:09:59.556Z,58.02
2018-05-25T13:12:29.782Z,51.74
2018-05-25T13:15:00.061Z,46.16
2018-05-25T13:17:30.297Z,46.79
2018-05-25T13:20:00.534Z,47.11
2018-05-25T13:22:30.757Z,48.57
2018-05-25T13:25:00.983Z,45.87
2018-05-25T13:27:31.259Z,46.62
2018-05-25T13:30:01.495Z,46.95
2018-05-25T13:32:31.740Z,45.94
2018-05-25T13:35:01.384Z,49.08
2018-05-25T13:37:31.029Z,45.34
2018-05-25T13:40:00.734Z,44.41
2018-05-25T13:42:30.391Z,44.55
2018-05-25T13:45:00.046Z,41.84
2018-05-25T13:47:29.715Z,42.08
2018-05-25T13:49:59.041Z,40.02
2018-05-25T13:52:28.747Z,38.50
2018-05-25T13:54:58.397Z,38.73
2018-05-25T13:57:28.052Z,39.32
2018-05-25T13:59:57.696Z,37.44
2018-05-25T14:02:27.355Z,35.88
2018-05-25T14:04:57.067Z,39.47
2018-05-25T14:07:26.725Z,37.77
2018-05-25T14:09:56.414Z,34.38
2018-05-25T14:12:26.642Z,35.65
2018-05-25T14:14:56.891Z,36.22
2018-05-25T14:17:27.254Z,36.33
2018-05-25T14:19:57.488Z,36.38
2018-05-25T14:22:27.739Z,37.38
2018-05-25T14:24:57.996Z,38.31
2018-05-25T14:27:28.220Z,34.97
2018-05-25T14:29:58.515Z,36.08
2018-05-25T14:32:28.160Z,34.45
2018-05-25T14:34:57.814Z,33.76
2018-05-25T14:37:27.471Z,34.86
2018-05-25T14:39:57.904Z,32.28
2018-05-25T14:42:27.600Z,33.32
2018-05-25T14:44:57.259Z,32.21
2018-05-25T14:47:26.907Z,33.27
2018-05-25T14:49:56.580Z,36.17
2018-05-25T14:52:26.247Z,36.24
2018-05-25T14:54:55.936Z,37.06
2018-05-25T14:57:25.585Z,37.25
2018-05-25T14:59:55.249Z,37.09
2018-05-25T15:02:24.937Z,37.96
2018-05-25T15:04:54.599Z,38.59
2018-05-25T15:07:24.318Z,37.36
2018-05-25T15:09:54.565Z,36.83
2018-05-25T15:12:24.852Z,36.63
2018-05-25T15:14:54.837Z,36.39
2018-05-25T15:17:24.508Z,36.83
2018-05-25T15:19:54.548Z,37.13
2018-05-25T15:22:24.788Z,34.75
2018-05-25T15:24:54.497Z,35.59
2018-05-25T15:27:24.733Z,34.34
2018-05-25T15:29:54.697Z,34.63
2018-05-25T15:32:25.003Z,36.17
2018-05-25T15:34:55.269Z,37.42
2018-05-25T15:37:25.267Z,37.97
2018-05-25T15:39:54.659Z,36.72
2018-05-25T15:42:24.312Z,39.08
2018-05-25T15:44:54.274Z,40.56
2018-05-25T15:47:24.493Z,42.14
2018-05-25T15:49:54.188Z,43.38
2018-05-25T15:52:23.859Z,45.01
2018-05-25T15:54:53.511Z,45.56
2018-05-25T15:57:22.883Z,47.01
2018-05-25T15:59:51.934Z,47.85
2018-05-25T16:02:21.657Z,48.59
2018-05-25T16:04:51.515Z,48.67
2018-05-25T16:07:21.177Z,49.26
2018-05-25T16:09:50.559Z,49.62
2018-05-25T16:12:19.940Z,50.36
2018-05-25T16:14:49.359Z,50.68
2018-05-25T16:17:18.734Z,51.51
2018-05-25T16:19:48.162Z,51.57
2018-05-25T16:22:17.727Z,51.96
2018-05-25T16:24:47.404Z,52.10
2018-05-25T16:27:16.819Z,52.01
2018-05-25T16:29:46.192Z,52.08
2018-05-25T16:32:15.578Z,51.36
2018-05-25T16:34:44.941Z,51.37
2018-05-25T16:37:14.321Z,51.74
2018-05-25T16:39:43.740Z,51.64
2018-05-25T16:42:13.412Z,51.79
2018-05-25T16:44:42.793Z,51.66
2018-05-25T16:47:12.160Z,52.61
2018-05-25T16:49:41.539Z,52.76
2018-05-25T16:52:10.951Z,52.64
2018-05-25T16:54:40.628Z,51.81
2018-05-25T16:57:10.012Z,52.05
2018-05-25T16:59:39.387Z,52.23
2018-05-25T17:02:08.761Z,52.26
2018-05-25T17:04:38.172Z,52.47
2018-05-25T17:07:07.202Z,52.95
2018-05-25T17:09:36.576Z,53.24
2018-05-25T17:12:06.247Z,53.15
2018-05-25T17:14:35.624Z,53.36
2018-05-25T17:17:05.173Z,53.62
2018-05-25T17:19:34.831Z,53.57
2018-05-25T17:22:04.493Z,53.87
2018-05-25T17:24:34.137Z,53.85
2018-05-25T17:27:03.807Z,53.57
2018-05-25T17:29:33.230Z,54.02
2018-05-25T17:32:02.592Z,53.91
2018-05-25T17:34:31.973Z,54.11
2018-05-25T17:37:01.628Z,54.29
2018-05-25T17:39:31.296Z,54.43
2018-05-25T17:42:00.739Z,54.83
2018-05-25T17:44:30.387Z,55.22
2018-05-25T17:47:00.059Z,55.25
2018-05-25T17:49:29.472Z,55.38
2018-05-25T17:51:59.130Z,55.57
2018-05-25T17:54:28.545Z,55.37
2018-05-25T17:56:57.963Z,55.70
2018-05-25T17:59:27.541Z,55.93
2018-05-25T18:01:56.905Z,56.20
2018-05-25T18:04:26.569Z,56.42
2018-05-25T18:06:55.993Z,56.87
2018-05-25T18:09:25.391Z,57.11
2018-05-25T18:11:54.441Z,57.38
2018-05-25T18:14:23.837Z,57.99
2018-05-25T18:16:53.219Z,58.29
2018-05-25T18:19:22.917Z,58.62
2018-05-25T18:21:52.289Z,58.81
2018-05-25T18:24:21.678Z,58.91
2018-05-25T18:26:51.060Z,59.00
2018-05-25T18:29:20.434Z,59.25
2018-05-25T18:31:49.855Z,59.55
2018-05-25T18:34:19.257Z,59.76
2018-05-25T18:36:48.648Z,60.15
2018-05-25T18:39:18.040Z,60.27
2018-05-25T18:41:47.414Z,60.79
2018-05-25T18:44:16.832Z,60.90
2018-05-25T18:46:46.224Z,60.75
2018-05-25T18:49:16.414Z,60.71
2018-05-25T18:51:45.800Z,61.00
2018-05-25T18:54:26.865Z,61.19
2018-05-25T18:56:56.282Z,61.41
2018-05-25T18:59:25.932Z,62.06
2018-05-25T19:04:30.570Z,62.62
2018-05-25T19:07:00.165Z,62.66
2018-05-25T19:09:29.618Z,63.05
2018-05-25T19:11:58.991Z,63.04
2018-05-25T19:14:28.376Z,63.30
2018-05-25T19:16:57.754Z,63.53
2018-05-25T19:19:27.162Z,63.87
2018-05-25T19:21:56.563Z,64.24
2018-05-25T19:24:25.947Z,64.56
2018-05-25T19:26:55.034Z,65.46
2018-05-25T19:29:24.628Z,65.75
2018-05-25T19:31:54.024Z,65.75
2018-05-25T19:34:23.457Z,66.27
2018-05-25T19:36:52.835Z,67.13
2018-05-25T19:39:22.204Z,67.74
2018-05-25T19:41:51.867Z,67.79
2018-05-25T19:44:21.239Z,68.67
2018-05-25T19:46:50.662Z,69.15
2018-05-25T19:49:20.045Z,69.15
2018-05-25T19:51:49.427Z,69.21
2018-05-25T19:54:18.815Z,69.69
2018-05-25T19:56:48.199Z,70.16
2018-05-25T19:59:17.628Z,70.55
2018-05-25T20:01:47.015Z,70.72
2018-05-25T20:04:16.445Z,70.76
2018-05-25T20:06:46.052Z,71.07
2018-05-25T20:09:15.451Z,71.22
2018-05-25T20:11:44.845Z,71.28
2018-05-25T20:14:14.214Z,71.34
2018-05-25T20:16:43.617Z,71.40
2018-05-25T20:19:13.324Z,71.20
2018-05-25T20:21:42.704Z,70.92
2018-05-25T20:24:12.090Z,70.88
2018-05-25T20:26:41.480Z,71.07
2018-05-25T20:29:10.858Z,70.85
2018-05-25T20:31:40.281Z,71.04
2018-05-25T20:34:09.679Z,70.96
2018-05-25T20:36:39.075Z,70.89
2018-05-25T20:39:08.443Z,70.45
2018-05-25T20:41:37.812Z,70.28
2018-05-25T20:44:07.240Z,70.36
2018-05-25T20:46:36.624Z,70.40
2018-05-25T20:49:06.004Z,70.25
2018-05-25T20:51:35.415Z,70.60
2018-05-25T20:54:04.470Z,70.82
2018-05-25T20:56:33.883Z,71.01
2018-05-25T20:59:03.539Z,71.21
2018-05-25T21:01:32.901Z,71.27
2018-05-25T21:04:02.555Z,72.01
2018-05-25T21:06:31.923Z,72.55
2018-05-25T21:09:01.340Z,73.11
2018-05-25T21:11:30.718Z,73.19
2018-05-25T21:14:00.131Z,73.51
2018-05-25T21:16:29.518Z,74.34
2018-05-25T21:18:58.894Z,74.72
2018-05-25T21:21:28.343Z,75.22
2018-05-25T21:23:57.716Z,75.17
2018-05-25T21:26:27.103Z,75.38
2018-05-25T21:28:56.503Z,75.83
2018-05-25T21:31:25.896Z,76.61
2018-05-25T21:33:55.274Z,77.44
2018-05-25T21:36:24.672Z,78.14
2018-05-25T21:38:54.356Z,79.12
2018-05-25T21:41:23.745Z,79.74
2018-05-25T21:43:53.152Z,79.87
2018-05-25T21:46:22.538Z,80.34
2018-05-25T21:48:51.934Z,80.42
2018-05-25T21:51:21.363Z,80.62
2018-05-25T21:53:50.755Z,80.86
2018-05-25T21:56:20.144Z,81.12
2018-05-25T21:58:49.522Z,81.45
2018-05-25T22:01:18.903Z,81.84
2018-05-25T22:03:48.341Z,82.10
2018-05-25T22:06:17.720Z,82.75
2018-05-25T22:08:47.118Z,82.97
2018-05-25T22:11:16.522Z,82.53
2018-05-25T22:13:45.911Z,82.33
2018-05-25T22:16:15.350Z,82.66
2018-05-25T22:18:44.815Z,83.08
2018-05-25T22:21:14.390Z,84.04
2018-05-25T22:23:43.771Z,85.17
2018-05-25T22:26:13.152Z,84.83
2018-05-25T22:28:42.596Z,84.03
2018-05-25T22:31:12.000Z,83.40
2018-05-25T22:33:41.387Z,83.16
2018-05-25T22:36:10.763Z,83.48
2018-05-25T22:38:40.147Z,83.97
2018-05-25T22:41:09.557Z,84.26
2018-05-25T22:43:50.058Z,84.69
2018-05-25T22:46:36.530Z,85.08
2018-05-25T22:49:23.023Z,85.70
2018-05-25T22:52:09.638Z,85.93
2018-05-25T22:54:42.776Z,86.49
2018-05-25T22:57:12.205Z,86.67
2018-05-25T22:59:41.894Z,86.91
2018-05-25T23:02:11.567Z,87.12
2018-05-25T23:04:40.899Z,87.21
2018-05-25T23:07:10.562Z,87.70
2018-05-25T23:09:40.281Z,87.81
2018-05-25T23:12:09.935Z,87.55
2018-05-25T23:14:39.695Z,87.45
2018-05-25T23:17:09.367Z,87.28
2018-05-25T23:19:39.031Z,87.54
2018-05-25T23:22:08.744Z,87.68
2018-05-25T23:24:38.162Z,87.46
2018-05-25T23:27:07.816Z,87.95
2018-05-25T23:29:37.476Z,88.28
2018-05-25T23:32:07.141Z,88.91
2018-05-25T23:34:36.915Z,88.97
2018-05-25T23:37:06.748Z,89.25
2018-05-25T23:39:36.411Z,89.49
2018-05-25T23:42:06.088Z,89.60
2018-05-25T23:44:35.784Z,89.54
2018-05-25T23:47:05.497Z,89.88
2018-05-25T23:49:35.172Z,89.80
2018-05-25T23:52:04.879Z,89.18
2018-05-25T23:54:34.553Z,89.56
2018-05-25T23:57:04.236Z,90.09
2018-05-25T23:59:33.911Z,89.94
